Time;durP1;ratioP1;P1;durP2;ratioP2;P2;SDS_P1;SDS_P2;PMS_P1;PMS_P2;Temp;Humidity;BMP_temperature;BMP_pressure;BME280_temperature;BME280_humidity;BME280_pressure;Samples;Min_cycle;Max_cycle;Signal;HPM_P1;HPM_P2
2023/04/02 00:00:16;;;;;;;1.40;0.50;;;;;;;;;;5011150;28;20060;-60
2023/04/02 00:02:48;;;;;;;0.10;0.10;;;;;;;;;;5002910;28;20073;-61
2023/04/02 00:05:33;;;;;;;0.20;0.20;;;;;;;;;;5010389;28;20058;-60
2023/04/02 00:08:09;;;;;;;0.10;0.10;;;;;;;;;;4991990;28;20050;-60
2023/04/02 00:10:38;;;;;;;0.20;0.13;;;;;;;;;;4996536;28;20046;-60
2023/04/02 00:13:07;;;;;;;0.10;0.10;;;;;;;;;;5012638;28;20427;-59
2023/04/02 00:15:36;;;;;;;2.38;0.20;;;;;;;;;;5007245;28;20161;-63
2023/04/02 00:18:05;;;;;;;0.40;0.22;;;;;;;;;;5011182;28;20057;-61
2023/04/02 00:20:35;;;;;;;0.57;0.20;;;;;;;;;;4994341;28;20482;-59
2023/04/02 00:23:05;;;;;;;0.25;0.25;;;;;;;;;;5012538;28;20145;-61
2023/04/02 00:25:41;;;;;;;0.10;0.10;;;;;;;;;;5004068;28;20145;-59
2023/04/02 00:28:11;;;;;;;0.10;0.10;;;;;;;;;;4992484;28;20061;-61
2023/04/02 00:30:46;;;;;;;0.10;0.10;;;;;;;;;;5001797;28;20092;-62
2023/04/02 00:33:16;;;;;;;0.50;0.20;;;;;;;;;;5012147;28;20513;-60
2023/04/02 00:35:44;;;;;;;0.10;0.10;;;;;;;;;;5011870;28;20417;-61
2023/04/02 00:38:20;;;;;;;0.13;0.13;;;;;;;;;;5000058;28;20049;-61
2023/04/02 00:40:50;;;;;;;0.17;0.17;;;;;;;;;;5010437;28;20060;-59
2023/04/02 00:43:19;;;;;;;0.10;0.10;;;;;;;;;;5011793;28;20137;-61
2023/04/02 00:45:51;;;;;;;0.10;0.10;;;;;;;;;;5009946;28;20550;-60
2023/04/02 00:48:25;;;;;;;0.20;0.20;;;;;;;;;;5012102;28;20060;-60
2023/04/02 00:50:55;;;;;;;0.28;0.25;;;;;;;;;;5010482;28;20049;-60
2023/04/02 00:53:25;;;;;;;0.52;0.20;;;;;;;;;;5012006;28;20140;-60
2023/04/02 00:55:54;;;;;;;0.15;0.15;;;;;;;;;;5005655;28;20547;-62
2023/04/02 00:58:26;;;;;;;0.47;0.22;;;;;;;;;;5004450;28;20045;-61
2023/04/02 01:00:54;;;;;;;0.10;0.10;;;;;;;;;;5010629;28;20046;-60
2023/04/02 01:03:33;;;;;;;0.20;0.20;;;;;;;;;;5023963;23;20517;-60
2023/04/02 01:06:09;;;;;;;0.20;0.20;;;;;;;;;;5003494;28;20057;-60
2023/04/02 01:08:51;;;;;;;0.10;0.10;;;;;;;;;;5008617;28;20112;-60
2023/04/02 01:11:26;;;;;;;2.08;0.15;;;;;;;;;;5011583;28;20046;-61
2023/04/02 01:13:54;;;;;;;;;;;;;;;;;;5012180;28;20186;-60
2023/04/02 01:16:28;;;;;;;1.48;0.35;;;;;;;;;;5009335;28;19921;-62
2023/04/02 01:19:00;;;;;;;0.10;0.10;;;;;;;;;;5009474;28;20046;-61
2023/04/02 01:21:36;;;;;;;0.30;0.20;;;;;;;;;;5011335;28;20044;-61
2023/04/02 01:24:07;;;;;;;0.73;0.20;;;;;;;;;;5011291;28;20134;-60
2023/04/02 01:26:51;;;;;;;0.22;0.22;;;;;;;;;;5009451;28;20464;-61
2023/04/02 01:29:21;;;;;;;0.10;0.10;;;;;;;;;;5009475;28;20065;-63
2023/04/02 01:31:51;;;;;;;0.50;0.50;;;;;;;;;;5010403;28;20049;-60
2023/04/02 01:34:22;;;;;;;0.10;0.10;;;;;;;;;;5010823;28;20064;-61
2023/04/02 01:36:57;;;;;;;0.10;0.10;;;;;;;;;;5009240;28;20450;-61
2023/04/02 01:39:31;;;;;;;0.25;0.10;;;;;;;;;;5010613;28;20050;-60
2023/04/02 01:42:06;;;;;;;0.10;0.10;;;;;;;;;;5010524;28;20068;-60
2023/04/02 01:44:38;;;;;;;0.00;0.00;;;;;;;;;;5010801;28;20050;-60
2023/04/02 01:47:10;;;;;;;0.35;0.35;;;;;;;;;;5009265;28;20049;-63
2023/04/02 01:49:40;;;;;;;0.20;0.20;;;;;;;;;;5010491;28;20136;-60
2023/04/02 01:52:08;;;;;;;0.10;0.10;;;;;;;;;;5010374;28;20415;-60
2023/04/02 01:54:37;;;;;;;0.00;0.00;;;;;;;;;;5010629;28;20060;-60
2023/04/02 01:57:06;;;;;;;0.10;0.10;;;;;;;;;;5009310;28;20112;-60
2023/04/02 01:59:35;;;;;;;0.55;0.20;;;;;;;;;;5009891;28;20136;-59
2023/04/02 02:02:06;;;;;;;0.10;0.10;;;;;;;;;;5009325;28;20050;-60
2023/04/02 02:04:35;;;;;;;4.68;0.20;;;;;;;;;;5010156;28;20056;-59
2023/04/02 02:07:04;;;;;;;0.75;0.20;;;;;;;;;;5008719;28;20451;-59
2023/04/02 02:09:34;;;;;;;0.10;0.10;;;;;;;;;;5009823;28;20130;-61
2023/04/02 02:12:03;;;;;;;0.10;0.10;;;;;;;;;;5009727;28;20089;-60
2023/04/02 02:14:32;;;;;;;0.10;0.10;;;;;;;;;;5010718;28;20354;-63
2023/04/02 02:17:03;;;;;;;0.10;0.10;;;;;;;;;;5008722;28;20057;-60
2023/04/02 02:19:35;;;;;;;0.10;0.10;;;;;;;;;;5010307;28;20046;-61
2023/04/02 02:22:07;;;;;;;0.20;0.20;;;;;;;;;;5009974;28;20045;-61
2023/04/02 02:24:36;;;;;;;0.10;0.10;;;;;;;;;;5010300;28;20133;-61
2023/04/02 02:27:09;;;;;;;0.13;0.13;;;;;;;;;;5008487;28;20054;-61
2023/04/02 02:29:39;;;;;;;0.10;0.10;;;;;;;;;;5008794;28;20530;-61
2023/04/02 02:32:10;;;;;;;0.20;0.20;;;;;;;;;;5007176;28;20450;-61
2023/04/02 02:34:41;;;;;;;0.10;0.10;;;;;;;;;;5009117;28;20050;-61
2023/04/02 02:37:13;;;;;;;0.10;0.10;;;;;;;;;;5009453;28;20104;-61
2023/04/02 02:39:44;;;;;;;0.10;0.10;;;;;;;;;;5009848;28;20052;-62
2023/04/02 02:42:15;;;;;;;0.10;0.10;;;;;;;;;;5010113;28;20042;-62
2023/04/02 02:44:45;;;;;;;0.10;0.10;;;;;;;;;;5009417;28;20046;-61
2023/04/02 02:47:15;;;;;;;0.17;0.17;;;;;;;;;;5008440;28;20050;-62
2023/04/02 02:49:46;;;;;;;0.10;0.10;;;;;;;;;;4997429;28;20056;-59
2023/04/02 02:52:16;;;;;;;0.20;0.20;;;;;;;;;;5009558;28;20657;-59
2023/04/02 02:54:45;;;;;;;0.10;0.10;;;;;;;;;;5009207;28;20057;-61
2023/04/02 02:57:16;;;;;;;0.10;0.10;;;;;;;;;;5009056;28;20070;-62
2023/04/02 02:59:45;;;;;;;0.10;0.10;;;;;;;;;;5010275;28;20454;-60
2023/04/02 03:02:15;;;;;;;0.10;0.10;;;;;;;;;;5008254;28;20054;-60
2023/04/02 03:04:48;;;;;;;0.20;0.20;;;;;;;;;;5009607;28;20148;-61
2023/04/02 03:07:18;;;;;;;0.13;0.13;;;;;;;;;;5008934;28;20046;-60
2023/04/02 03:09:51;;;;;;;0.10;0.10;;;;;;;;;;5010221;28;20115;-60
2023/04/02 03:12:26;;;;;;;1.17;0.30;;;;;;;;;;5008427;28;20133;-59
2023/04/02 03:14:59;;;;;;;0.22;0.22;;;;;;;;;;5008564;28;20422;-61
2023/04/02 03:17:31;;;;;;;0.00;0.00;;;;;;;;;;5007778;28;20550;-62
2023/04/02 03:20:05;;;;;;;0.10;0.10;;;;;;;;;;5009106;28;20077;-61
2023/04/02 03:22:36;;;;;;;0.10;0.10;;;;;;;;;;5008612;28;20124;-61
2023/04/02 03:25:08;;;;;;;0.10;0.10;;;;;;;;;;5009116;28;20384;-64
2023/04/02 03:27:39;;;;;;;0.30;0.20;;;;;;;;;;5008803;28;20050;-61
2023/04/02 03:30:18;;;;;;;0.20;0.17;;;;;;;;;;5009316;28;20138;-60
2023/04/02 03:32:49;;;;;;;0.00;0.00;;;;;;;;;;5008209;28;20052;-60
2023/04/02 03:35:21;;;;;;;0.85;0.25;;;;;;;;;;5006882;28;20061;-60
2023/04/02 03:37:52;;;;;;;0.15;0.15;;;;;;;;;;5008227;28;20060;-62
2023/04/02 03:40:23;;;;;;;0.10;0.10;;;;;;;;;;5008971;28;20053;-61
2023/04/02 03:42:53;;;;;;;0.13;0.13;;;;;;;;;;5008830;28;20049;-61
2023/04/02 03:45:23;;;;;;;0.30;0.30;;;;;;;;;;5008168;28;20122;-60
2023/04/02 03:47:53;;;;;;;0.73;0.22;;;;;;;;;;5008062;28;20046;-60
2023/04/02 03:50:26;;;;;;;0.10;0.10;;;;;;;;;;5009117;28;20473;-60
2023/04/02 03:52:54;;;;;;;0.10;0.10;;;;;;;;;;4996077;28;20056;-60
2023/04/02 03:55:24;;;;;;;0.30;0.30;;;;;;;;;;5008211;28;20443;-59
2023/04/02 03:57:58;;;;;;;0.82;0.38;;;;;;;;;;5007935;28;20050;-61
2023/04/02 04:00:27;;;;;;;0.10;0.10;;;;;;;;;;5007422;28;20052;-61
2023/04/02 04:02:58;;;;;;;0.55;0.20;;;;;;;;;;5008663;28;20160;-61
2023/04/02 04:05:29;;;;;;;0.50;0.50;;;;;;;;;;5004995;28;20053;-62
2023/04/02 04:08:00;;;;;;;0.10;0.10;;;;;;;;;;4991294;28;20133;-61
2023/04/02 04:10:29;;;;;;;0.90;0.20;;;;;;;;;;5007306;28;20054;-61
2023/04/02 04:13:03;;;;;;;0.08;0.08;;;;;;;;;;5006314;28;20135;-62
2023/04/02 04:15:33;;;;;;;0.10;0.10;;;;;;;;;;5008450;28;20054;-61
2023/04/02 04:18:03;;;;;;;0.10;0.10;;;;;;;;;;4998996;28;20042;-60
2023/04/02 04:20:36;;;;;;;0.10;0.10;;;;;;;;;;5006136;28;20065;-59
2023/04/02 04:23:11;;;;;;;0.10;0.10;;;;;;;;;;5007726;28;20508;-62
2023/04/02 04:25:40;;;;;;;0.10;0.10;;;;;;;;;;5007582;28;20050;-61
2023/04/02 04:28:15;;;;;;;0.10;0.10;;;;;;;;;;5006835;28;20053;-60
2023/04/02 04:30:50;;;;;;;2.38;0.20;;;;;;;;;;5007390;28;20077;-60
2023/04/02 04:33:21;;;;;;;;;;;;;;;;;;5011934;28;20487;-61
2023/04/02 04:35:53;;;;;;;0.28;0.22;;;;;;;;;;5001491;28;19972;-60
2023/04/02 04:38:26;;;;;;;0.10;0.10;;;;;;;;;;5011697;28;20049;-60
2023/04/02 04:40:56;;;;;;;0.10;0.10;;;;;;;;;;5010217;28;20050;-61
2023/04/02 04:43:28;;;;;;;0.17;0.17;;;;;;;;;;5011672;28;20041;-60
2023/04/02 04:46:01;;;;;;;2.80;0.25;;;;;;;;;;5009652;28;20056;-62
2023/04/02 04:48:32;;;;;;;0.15;0.15;;;;;;;;;;5011712;28;20358;-61
2023/04/02 04:51:06;;;;;;;0.00;0.00;;;;;;;;;;5010379;28;20046;-61
2023/04/02 04:53:34;;;;;;;0.08;0.08;;;;;;;;;;5011587;28;20411;-64
2023/04/02 04:56:04;;;;;;;0.30;0.30;;;;;;;;;;5010560;28;20485;-60
2023/04/02 04:58:49;;;;;;;1.95;0.30;;;;;;;;;;5010200;28;20062;-60
2023/04/02 05:01:19;;;;;;;0.30;0.30;;;;;;;;;;5009089;28;20125;-60
2023/04/02 05:03:52;;;;;;;0.10;0.10;;;;;;;;;;5011085;28;20100;-61
2023/04/02 05:06:26;;;;;;;0.10;0.10;;;;;;;;;;5010165;28;20410;-61
2023/04/02 05:08:56;;;;;;;0.17;0.17;;;;;;;;;;5009552;28;20462;-61
2023/04/02 05:11:28;;;;;;;0.10;0.10;;;;;;;;;;5008282;28;20045;-62
2023/04/02 05:13:59;;;;;;;0.65;0.45;;;;;;;;;;5010310;28;20045;-64
2023/04/02 05:16:31;;;;;;;0.10;0.10;;;;;;;;;;5010152;28;20064;-61
2023/04/02 05:19:01;;;;;;;0.10;0.10;;;;;;;;;;5009886;28;20156;-64
2023/04/02 05:21:38;;;;;;;0.10;0.10;;;;;;;;;;4998680;28;20045;-61
2023/04/02 05:24:12;;;;;;;0.90;0.20;;;;;;;;;;5010327;28;20127;-60
2023/04/02 05:26:42;;;;;;;0.20;0.20;;;;;;;;;;5001061;28;20426;-62
2023/04/02 05:29:14;;;;;;;0.10;0.10;;;;;;;;;;5009944;28;20046;-64
2023/04/02 05:31:45;;;;;;;0.20;0.20;;;;;;;;;;5008491;28;20133;-61
2023/04/02 05:34:14;;;;;;;0.30;0.15;;;;;;;;;;5010402;28;20129;-61
2023/04/02 05:36:47;;;;;;;0.28;0.28;;;;;;;;;;4999730;28;20046;-62
2023/04/02 05:39:21;;;;;;;0.10;0.10;;;;;;;;;;5010315;28;20124;-61
2023/04/02 05:41:57;;;;;;;0.20;0.20;;;;;;;;;;5009803;28;20511;-62
2023/04/02 05:44:27;;;;;;;0.10;0.10;;;;;;;;;;5008123;28;20414;-61
2023/04/02 05:46:57;;;;;;;0.10;0.10;;;;;;;;;;4997804;28;20050;-61
2023/04/02 05:49:28;;;;;;;0.10;0.10;;;;;;;;;;5009783;28;20411;-60
2023/04/02 05:52:01;;;;;;;0.10;0.10;;;;;;;;;;5012255;28;20037;-65
2023/04/02 05:54:31;;;;;;;0.52;0.20;;;;;;;;;;5010006;28;20546;-61
2023/04/02 05:57:03;;;;;;;0.10;0.10;;;;;;;;;;5009715;28;20096;-59
2023/04/02 05:59:32;;;;;;;0.80;0.35;;;;;;;;;;5009922;28;20133;-60
2023/04/02 06:02:03;;;;;;;0.10;0.10;;;;;;;;;;5009621;28;20053;-60
2023/04/02 06:04:33;;;;;;;0.10;0.10;;;;;;;;;;5009828;28;20053;-60
2023/04/02 06:07:05;;;;;;;0.20;0.20;;;;;;;;;;5009411;28;20049;-61
2023/04/02 06:09:38;;;;;;;1.75;0.60;;;;;;;;;;5009430;28;20042;-59
2023/04/02 06:12:13;;;;;;;0.13;0.13;;;;;;;;;;5007123;28;20049;-63
2023/04/02 06:14:41;;;;;;;0.28;0.28;;;;;;;;;;5008877;28;20487;-60
2023/04/02 06:17:12;;;;;;;0.10;0.10;;;;;;;;;;5009442;28;20058;-61
2023/04/02 06:19:40;;;;;;;0.10;0.10;;;;;;;;;;5009632;28;20493;-61
2023/04/02 06:22:15;;;;;;;0.30;0.30;;;;;;;;;;5008712;28;20073;-60
2023/04/02 06:24:45;;;;;;;0.13;0.13;;;;;;;;;;5009977;28;20053;-60
2023/04/02 06:27:17;;;;;;;0.30;0.30;;;;;;;;;;5008716;28;20054;-60
2023/04/02 06:29:46;;;;;;;0.70;0.22;;;;;;;;;;5008789;28;20566;-61
2023/04/02 06:32:14;;;;;;;0.00;0.00;;;;;;;;;;5007409;28;20133;-61
2023/04/02 06:34:43;;;;;;;0.28;0.28;;;;;;;;;;5007788;28;20064;-62
2023/04/02 06:37:16;;;;;;;0.10;0.10;;;;;;;;;;5008880;28;20141;-60
2023/04/02 06:39:44;;;;;;;0.20;0.20;;;;;;;;;;4996420;28;20041;-60
2023/04/02 06:42:14;;;;;;;0.32;0.30;;;;;;;;;;5007779;28;20046;-62
2023/04/02 06:44:43;;;;;;;0.15;0.15;;;;;;;;;;5008291;28;20042;-61
2023/04/02 06:47:16;;;;;;;0.10;0.10;;;;;;;;;;5008685;28;20074;-61
2023/04/02 06:49:46;;;;;;;0.30;0.25;;;;;;;;;;4997279;28;20438;-60
2023/04/02 06:52:18;;;;;;;0.10;0.10;;;;;;;;;;5006104;28;20044;-61
2023/04/02 06:54:47;;;;;;;0.43;0.38;;;;;;;;;;5007860;28;20045;-60
2023/04/02 06:57:15;;;;;;;0.20;0.20;;;;;;;;;;5008497;28;20076;-59
2023/04/02 06:59:44;;;;;;;0.13;0.13;;;;;;;;;;5005920;28;20045;-60
2023/04/02 07:02:23;;;;;;;0.63;0.30;;;;;;;;;;4998655;28;20084;-60
2023/04/02 07:04:52;;;;;;;0.10;0.10;;;;;;;;;;5008917;28;20056;-62
2023/04/02 07:07:22;;;;;;;0.20;0.20;;;;;;;;;;5004389;28;20072;-60
2023/04/02 07:09:50;;;;;;;2.42;0.25;;;;;;;;;;5002825;28;20145;-62
2023/04/02 07:12:23;;;;;;;0.30;0.30;;;;;;;;;;5003192;28;20268;-60
2023/04/02 07:14:51;;;;;;;0.45;0.25;;;;;;;;;;5005534;28;20046;-61
2023/04/02 07:17:20;;;;;;;0.10;0.10;;;;;;;;;;4992231;28;20059;-61
2023/04/02 07:19:49;;;;;;;0.15;0.15;;;;;;;;;;5006217;28;20170;-61
2023/04/02 07:22:18;;;;;;;0.15;0.15;;;;;;;;;;4997576;28;20046;-61
2023/04/02 07:24:47;;;;;;;0.22;0.22;;;;;;;;;;5006357;28;20061;-60
2023/04/02 07:27:16;;;;;;;0.10;0.10;;;;;;;;;;5004741;28;20049;-62
2023/04/02 07:29:44;;;;;;;0.20;0.20;;;;;;;;;;4991977;28;20051;-61
2023/04/02 07:32:13;;;;;;;0.20;0.20;;;;;;;;;;4997428;28;20068;-59
2023/04/02 07:34:42;;;;;;;0.10;0.10;;;;;;;;;;5001166;28;20381;-61
2023/04/02 07:37:13;;;;;;;0.10;0.10;;;;;;;;;;5005104;28;20474;-61
2023/04/02 07:39:41;;;;;;;0.20;0.20;;;;;;;;;;5004871;28;20056;-62
2023/04/02 07:42:11;;;;;;;0.10;0.10;;;;;;;;;;5006160;28;20050;-62
2023/04/02 07:44:40;;;;;;;0.13;0.13;;;;;;;;;;5006709;28;20049;-62
2023/04/02 07:47:09;;;;;;;1.40;0.43;;;;;;;;;;5004495;28;20200;-61
2023/04/02 07:49:37;;;;;;;0.10;0.10;;;;;;;;;;5006329;28;20045;-62
2023/04/02 07:52:06;;;;;;;0.20;0.20;;;;;;;;;;5004897;28;20128;-64
2023/04/02 07:54:37;;;;;;;0.10;0.10;;;;;;;;;;5005763;28;20064;-61
2023/04/02 07:57:05;;;;;;;4.05;0.30;;;;;;;;;;5005325;28;20234;-61
2023/04/02 07:59:35;;;;;;;0.32;0.15;;;;;;;;;;5005497;28;20061;-61
2023/04/02 08:02:04;;;;;;;0.10;0.10;;;;;;;;;;5002878;28;20049;-60
2023/04/02 08:04:33;;;;;;;0.20;0.20;;;;;;;;;;5001982;28;20069;-62
2023/04/02 08:07:01;;;;;;;0.38;0.30;;;;;;;;;;5004478;28;20054;-61
2023/04/02 08:09:30;;;;;;;0.50;0.43;;;;;;;;;;5009659;28;20073;-61
2023/04/02 08:11:58;;;;;;;0.38;0.35;;;;;;;;;;5003226;28;20149;-61
2023/04/02 08:14:26;;;;;;;0.10;0.10;;;;;;;;;;4997978;28;20079;-61
2023/04/02 08:16:56;;;;;;;0.10;0.10;;;;;;;;;;5007626;28;20045;-61
2023/04/02 08:19:25;;;;;;;0.75;0.30;;;;;;;;;;5009236;28;20088;-60
2023/04/02 08:21:54;;;;;;;0.30;0.20;;;;;;;;;;5009402;28;20100;-61
2023/04/02 08:24:22;;;;;;;0.10;0.10;;;;;;;;;;5006988;28;20052;-64
2023/04/02 08:26:52;;;;;;;0.32;0.28;;;;;;;;;;5005148;28;20045;-62
2023/04/02 08:29:20;;;;;;;0.47;0.30;;;;;;;;;;5008022;28;20053;-62
2023/04/02 08:31:49;;;;;;;0.28;0.28;;;;;;;;;;5009114;28;20042;-63
2023/04/02 08:34:19;;;;;;;1.10;0.30;;;;;;;;;;5009337;28;20054;-62
2023/04/02 08:36:47;;;;;;;0.20;0.20;;;;;;;;;;5007393;28;20056;-60
2023/04/02 08:39:15;;;;;;;0.30;0.30;;;;;;;;;;5003408;28;20058;-62
2023/04/02 08:41:46;;;;;;;0.10;0.10;;;;;;;;;;5008195;28;20046;-61
2023/04/02 08:44:31;;;;;;;0.15;0.15;;;;;;;;;;5009192;28;20064;-61
2023/04/02 08:47:01;;;;;;;0.40;0.40;;;;;;;;;;4996365;28;20069;-61
2023/04/02 08:49:33;;;;;;;0.25;0.20;;;;;;;;;;5007637;28;20598;-59
2023/04/02 08:52:01;;;;;;;0.45;0.30;;;;;;;;;;5007583;28;20046;-62
2023/04/02 08:54:30;;;;;;;0.25;0.25;;;;;;;;;;5008824;28;20567;-61
2023/04/02 08:57:00;;;;;;;0.17;0.17;;;;;;;;;;5008250;28;20077;-59
2023/04/02 08:59:32;;;;;;;0.25;0.25;;;;;;;;;;5008331;28;20108;-60
2023/04/02 09:02:06;;;;;;;0.20;0.20;;;;;;;;;;4997321;28;20054;-61
2023/04/02 09:04:37;;;;;;;0.10;0.10;;;;;;;;;;4997997;28;20465;-62
2023/04/02 09:07:05;;;;;;;0.55;0.55;;;;;;;;;;5006260;28;20062;-60
2023/04/02 09:09:37;;;;;;;0.10;0.10;;;;;;;;;;5007292;28;20140;-59
2023/04/02 09:12:06;;;;;;;0.38;0.38;;;;;;;;;;5007108;28;20524;-60
2023/04/02 09:14:42;;;;;;;0.25;0.25;;;;;;;;;;4996996;28;20422;-62
2023/04/02 09:17:15;;;;;;;0.10;0.10;;;;;;;;;;5006385;28;20128;-61
2023/04/02 09:19:46;;;;;;;0.20;0.20;;;;;;;;;;5002338;28;20177;-62
2023/04/02 09:22:19;;;;;;;0.77;0.20;;;;;;;;;;5007029;28;20514;-60
2023/04/02 09:24:52;;;;;;;0.10;0.10;;;;;;;;;;5007551;28;20046;-61
2023/04/02 09:27:21;;;;;;;0.90;0.28;;;;;;;;;;5007321;28;20049;-60
2023/04/02 09:29:50;;;;;;;0.22;0.22;;;;;;;;;;5008492;28;20546;-60
2023/04/02 09:32:35;;;;;;;0.20;0.17;;;;;;;;;;4992756;28;20050;-62
2023/04/02 09:35:11;;;;;;;0.25;0.20;;;;;;;;;;4991447;28;20051;-62
2023/04/02 09:38:12;;;;;;;8.85;0.25;;;;;;;;;;4991756;28;20119;-62
2023/04/02 09:40:44;;;;;;;0.10;0.10;;;;;;;;;;5000717;28;20046;-60
2023/04/02 09:43:13;;;;;;;0.63;0.22;;;;;;;;;;4999364;28;20557;-62
2023/04/02 09:45:42;;;;;;;0.88;0.10;;;;;;;;;;5008023;28;20052;-60
2023/04/02 09:48:22;;;;;;;2.63;0.40;;;;;;;;;;5008148;28;20499;-60
2023/04/02 09:51:03;;;;;;;0.10;0.10;;;;;;;;;;5009991;28;20063;-61
2023/04/02 09:53:34;;;;;;;0.63;0.43;;;;;;;;;;5010550;28;20140;-62
2023/04/02 09:56:10;;;;;;;0.10;0.10;;;;;;;;;;5008813;28;20400;-61
2023/04/02 09:58:38;;;;;;;0.15;0.15;;;;;;;;;;4998584;28;20166;-61
2023/04/02 10:01:09;;;;;;;0.10;0.10;;;;;;;;;;5009299;28;20112;-60
2023/04/02 10:03:38;;;;;;;0.10;0.10;;;;;;;;;;4994240;28;20483;-60
2023/04/02 10:06:12;;;;;;;0.47;0.20;;;;;;;;;;5006362;28;20049;-60
2023/04/02 10:08:41;;;;;;;0.10;0.10;;;;;;;;;;5004035;28;20140;-59
2023/04/02 10:11:11;;;;;;;0.10;0.10;;;;;;;;;;5007421;28;20062;-61
2023/04/02 10:13:43;;;;;;;0.60;0.30;;;;;;;;;;5002842;28;20045;-62
2023/04/02 10:16:13;;;;;;;0.65;0.45;;;;;;;;;;4993832;28;20430;-63
2023/04/02 10:18:45;;;;;;;0.10;0.10;;;;;;;;;;5006946;28;20045;-64
2023/04/02 10:21:17;;;;;;;4.95;0.20;;;;;;;;;;5005960;28;20328;-59
2023/04/02 10:23:46;;;;;;;0.73;0.40;;;;;;;;;;5002404;28;20048;-60
2023/04/02 10:26:20;;;;;;;0.85;0.20;;;;;;;;;;5003776;28;20141;-62
2023/04/02 10:28:56;;;;;;;0.20;0.20;;;;;;;;;;5006036;28;20440;-60
2023/04/02 10:31:26;;;;;;;0.20;0.20;;;;;;;;;;5006334;28;20129;-63
2023/04/02 10:34:01;;;;;;;4.07;0.32;;;;;;;;;;4999602;28;20042;-60
2023/04/02 10:36:40;;;;;;;0.10;0.10;;;;;;;;;;5006068;28;20177;-61
2023/04/02 10:39:13;;;;;;;0.40;0.32;;;;;;;;;;5001836;28;20507;-62
2023/04/02 10:41:45;;;;;;;0.38;0.20;;;;;;;;;;5006372;28;20046;-66
2023/04/02 10:44:19;;;;;;;0.10;0.10;;;;;;;;;;5006769;28;20050;-63
2023/04/02 10:46:53;;;;;;;0.10;0.10;;;;;;;;;;5003613;28;20050;-63
2023/04/02 10:49:26;;;;;;;0.10;0.10;;;;;;;;;;5005996;28;20061;-64
2023/04/02 10:51:59;;;;;;;0.25;0.20;;;;;;;;;;5001953;28;20050;-64
2023/04/02 10:54:35;;;;;;;0.10;0.10;;;;;;;;;;5006187;28;20049;-61
2023/04/02 10:57:07;;;;;;;0.47;0.10;;;;;;;;;;5003755;28;20080;-63
2023/04/02 10:59:39;;;;;;;0.20;0.20;;;;;;;;;;5003296;28;20050;-60
2023/04/02 11:02:15;;;;;;;0.10;0.10;;;;;;;;;;5005008;28;20088;-61
2023/04/02 11:04:45;;;;;;;0.52;0.20;;;;;;;;;;4997940;28;20058;-63
2023/04/02 11:07:18;;;;;;;0.47;0.20;;;;;;;;;;5005425;28;20920;-60
2023/04/02 11:09:48;;;;;;;0.10;0.10;;;;;;;;;;5005829;28;20064;-61
2023/04/02 11:12:21;;;;;;;0.82;0.22;;;;;;;;;;5006366;28;20050;-63
2023/04/02 11:14:50;;;;;;;1.23;0.40;;;;;;;;;;5005511;28;20341;-62
2023/04/02 11:17:19;;;;;;;0.38;0.25;;;;;;;;;;5005416;28;20136;-62
2023/04/02 11:19:48;;;;;;;0.10;0.10;;;;;;;;;;5005793;28;20107;-60
2023/04/02 11:22:18;;;;;;;1.23;0.17;;;;;;;;;;4996268;28;20125;-62
2023/04/02 11:27:17;;;;;;;0.20;0.20;;;;;;;;;;4990262;28;20062;-89
2023/04/02 11:29:47;;;;;;;0.10;0.10;;;;;;;;;;5003159;28;20041;-88
2023/04/02 11:32:26;;;;;;;0.57;0.17;;;;;;;;;;5001432;28;20065;-87
2023/04/02 11:37:43;;;;;;;0.10;0.10;;;;;;;;;;4985787;23;20063;-87
2023/04/02 11:40:27;;;;;;;0.65;0.30;;;;;;;;;;4887439;29;20394;-89
2023/04/02 11:42:55;;;;;;;0.10;0.10;;;;;;;;;;4891730;29;20586;-89
2023/04/02 11:45:42;;;;;;;0.25;0.10;;;;;;;;;;4893549;29;20128;-92
2023/04/02 11:48:28;;;;;;;0.17;0.17;;;;;;;;;;4860469;29;20482;-90
2023/04/02 11:50:56;;;;;;;0.17;0.17;;;;;;;;;;4886651;29;20053;-88
2023/04/02 11:53:31;;;;;;;0.35;0.20;;;;;;;;;;4887882;29;20054;-84
2023/04/02 11:56:07;;;;;;;0.82;0.20;;;;;;;;;;4888393;29;20049;-86
2023/04/02 11:58:44;;;;;;;0.13;0.13;;;;;;;;;;4891887;29;20483;-87
2023/04/02 12:01:25;;;;;;;0.10;0.10;;;;;;;;;;4892218;29;20059;-87
2023/04/02 12:04:06;;;;;;;0.10;0.10;;;;;;;;;;4887623;29;20055;-87
2023/04/02 12:06:38;;;;;;;0.30;0.30;;;;;;;;;;4890143;29;20064;-87
2023/04/02 12:09:17;;;;;;;0.10;0.10;;;;;;;;;;4891846;29;20143;-86
2023/04/02 12:11:46;;;;;;;0.28;0.28;;;;;;;;;;4893229;29;20667;-88
2023/04/02 12:14:33;;;;;;;0.00;0.00;;;;;;;;;;4893744;29;20052;-85
2023/04/02 12:17:03;;;;;;;0.10;0.10;;;;;;;;;;4898409;29;20480;-87
2023/04/02 12:19:33;;;;;;;0.10;0.10;;;;;;;;;;4887596;29;20060;-86
2023/04/02 12:22:02;;;;;;;0.20;0.10;;;;;;;;;;4884950;29;20453;-86
2023/04/02 12:24:32;;;;;;;0.28;0.20;;;;;;;;;;4886472;29;20080;-87
2023/04/02 12:27:07;;;;;;;0.20;0.20;;;;;;;;;;4885088;29;20657;-86
2023/04/02 12:29:37;;;;;;;0.22;0.20;;;;;;;;;;4891110;29;20053;-89
2023/04/02 12:32:17;;;;;;;0.22;0.10;;;;;;;;;;4893107;29;20116;-91
2023/04/02 12:34:46;;;;;;;1.65;0.43;;;;;;;;;;4887548;29;20421;-86
2023/04/02 12:37:20;;;;;;;0.22;0.10;;;;;;;;;;4891330;29;20096;-83
2023/04/02 12:39:54;;;;;;;0.52;0.40;;;;;;;;;;4889708;29;20172;-88
2023/04/02 12:42:27;;;;;;;0.40;0.40;;;;;;;;;;4882733;29;20067;-90
2023/04/02 12:44:56;;;;;;;0.45;0.43;;;;;;;;;;4884402;29;20056;-85
2023/04/02 12:47:25;;;;;;;0.10;0.10;;;;;;;;;;4890439;29;20070;-87
2023/04/02 12:49:54;;;;;;;0.17;0.10;;;;;;;;;;4894849;29;20044;-88
2023/04/02 12:52:27;;;;;;;0.30;0.30;;;;;;;;;;4891734;29;20052;-87
2023/04/02 12:54:58;;;;;;;0.35;0.35;;;;;;;;;;4892815;29;20063;-87
2023/04/02 12:57:40;;;;;;;0.28;0.28;;;;;;;;;;4887506;29;20053;-85
2023/04/02 13:00:30;;;;;;;1.95;0.50;;;;;;;;;;4888459;29;20052;-87
2023/04/02 13:03:22;;;;;;;0.20;0.20;;;;;;;;;;4892343;29;20462;-87
2023/04/02 13:05:52;;;;;;;0.63;0.30;;;;;;;;;;4878174;29;20053;-87
2023/04/02 13:08:23;;;;;;;0.40;0.35;;;;;;;;;;4887504;29;20056;-87
2023/04/02 13:10:57;;;;;;;0.20;0.20;;;;;;;;;;4892231;29;20044;-89
2023/04/02 13:13:28;;;;;;;0.20;0.20;;;;;;;;;;4883614;29;20057;-87
2023/04/02 13:16:02;;;;;;;4.60;0.20;;;;;;;;;;4886085;29;20053;-88
2023/04/02 13:18:31;;;;;;;0.63;0.30;;;;;;;;;;4891150;29;20332;-87
2023/04/02 13:21:01;;;;;;;0.43;0.43;;;;;;;;;;4887717;29;20144;-85
2023/04/02 13:23:34;;;;;;;0.40;0.40;;;;;;;;;;4881892;29;20056;-86
2023/04/02 13:26:10;;;;;;;0.73;0.40;;;;;;;;;;4882131;29;20064;-88
2023/04/02 13:28:38;;;;;;;0.60;0.40;;;;;;;;;;4882409;29;20395;-88
2023/04/02 13:31:07;;;;;;;0.32;0.30;;;;;;;;;;4882098;29;20076;-86
2023/04/02 13:33:35;;;;;;;0.20;0.20;;;;;;;;;;4878275;29;20395;-84
2023/04/02 13:36:04;;;;;;;0.32;0.32;;;;;;;;;;4888936;29;20407;-84
2023/04/02 13:38:33;;;;;;;0.25;0.25;;;;;;;;;;4884305;29;20060;-84
2023/04/02 13:41:01;;;;;;;0.20;0.20;;;;;;;;;;4885474;29;20589;-84
2023/04/02 13:43:31;;;;;;;0.50;0.17;;;;;;;;;;4883514;29;20422;-84
2023/04/02 13:46:00;;;;;;;0.25;0.25;;;;;;;;;;4890791;29;20056;-87
2023/04/02 13:48:29;;;;;;;0.52;0.47;;;;;;;;;;4886262;29;20053;-88
2023/04/02 13:50:57;;;;;;;0.30;0.30;;;;;;;;;;4891240;29;20246;-87
2023/04/02 13:53:30;;;;;;;4.55;0.70;;;;;;;;;;4889879;29;20060;-87
2023/04/02 13:55:58;;;;;;;0.43;0.30;;;;;;;;;;4884119;29;20055;-87
2023/04/02 13:58:26;;;;;;;0.52;0.30;;;;;;;;;;4888223;29;20588;-86
2023/04/02 14:00:56;;;;;;;0.25;0.25;;;;;;;;;;4881205;29;20426;-87
2023/04/02 14:03:25;;;;;;;6.63;0.38;;;;;;;;;;4888091;29;20059;-87
2023/04/02 14:05:58;;;;;;;0.30;0.30;;;;;;;;;;4893078;29;20070;-86
2023/04/02 14:08:32;;;;;;;0.20;0.20;;;;;;;;;;4889103;29;20052;-87
2023/04/02 14:11:05;;;;;;;0.25;0.25;;;;;;;;;;4890553;29;20132;-86
2023/04/02 14:13:46;;;;;;;0.88;0.50;;;;;;;;;;4891954;29;20094;-87
2023/04/02 14:16:23;;;;;;;0.68;0.35;;;;;;;;;;4890886;29;20493;-87
2023/04/02 14:19:13;;;;;;;0.17;0.17;;;;;;;;;;4884999;29;20052;-86
2023/04/02 14:21:47;;;;;;;0.20;0.20;;;;;;;;;;4893337;29;20135;-87
2023/04/02 14:24:18;;;;;;;0.10;0.10;;;;;;;;;;4885111;29;20549;-87
2023/04/02 14:26:56;;;;;;;0.10;0.10;;;;;;;;;;4886495;29;20048;-84
2023/04/02 14:29:26;;;;;;;0.20;0.20;;;;;;;;;;4884969;29;20052;-86
2023/04/02 14:32:00;;;;;;;0.32;0.10;;;;;;;;;;4885059;29;20083;-86
2023/04/02 14:34:33;;;;;;;0.25;0.20;;;;;;;;;;4885065;29;20503;-86
2023/04/02 14:37:06;;;;;;;0.10;0.10;;;;;;;;;;4887784;29;20059;-87
2023/04/02 14:39:39;;;;;;;0.10;0.10;;;;;;;;;;4888076;29;20418;-86
2023/04/02 14:42:12;;;;;;;0.05;0.05;;;;;;;;;;4886242;29;20151;-87
2023/04/02 14:44:44;;;;;;;0.10;0.10;;;;;;;;;;4886551;29;20064;-86
2023/04/02 14:47:17;;;;;;;0.20;0.20;;;;;;;;;;4882575;29;20133;-86
2023/04/02 14:49:48;;;;;;;0.10;0.10;;;;;;;;;;4878043;29;20250;-86
2023/04/02 14:52:17;;;;;;;0.13;0.13;;;;;;;;;;4880969;29;20056;-85
2023/04/02 14:54:50;;;;;;;0.20;0.20;;;;;;;;;;4878978;29;20566;-87
2023/04/02 14:57:22;;;;;;;0.50;0.30;;;;;;;;;;4889149;29;20052;-87
2023/04/02 14:59:57;;;;;;;0.10;0.10;;;;;;;;;;4896560;29;20146;-86
2023/04/02 15:02:31;;;;;;;0.28;0.28;;;;;;;;;;4889068;29;20048;-85
2023/04/02 15:05:02;;;;;;;1.00;0.13;;;;;;;;;;4883911;29;20113;-87
2023/04/02 15:07:34;;;;;;;0.20;0.20;;;;;;;;;;4881858;29;20060;-86
2023/04/02 15:10:06;;;;;;;0.10;0.10;;;;;;;;;;4887690;29;20084;-88
2023/04/02 15:12:36;;;;;;;0.30;0.20;;;;;;;;;;4887164;29;20133;-86
2023/04/02 15:15:10;;;;;;;0.10;0.10;;;;;;;;;;4885942;29;20340;-87